sensor_id;sensor_type;location;lat;lon;timestamp;temperature;humidity
32097;DHT22;18610;49.916;8.284;2024-02-04T00:00:18;10.00;99.90
32097;DHT22;18610;49.916;8.284;2024-02-04T00:02:45;10.00;99.90
32097;DHT22;18610;49.916;8.284;2024-02-04T00:05:11;10.00;99.90
32097;DHT22;18610;49.916;8.284;2024-02-04T00:07:39;10.00;99.90
32097;DHT22;18610;49.916;8.284;2024-02-04T00:10:06;10.00;99.90
32097;DHT22;18610;49.916;8.284;2024-02-04T00:12:33;10.00;99.90
32097;DHT22;18610;49.916;8.284;2024-02-04T00:15:00;9.90;99.90
32097;DHT22;18610;49.916;8.284;2024-02-04T00:17:29;9.90;99.90
32097;DHT22;18610;49.916;8.284;2024-02-04T00:19:58;9.90;99.90
32097;DHT22;18610;49.916;8.284;2024-02-04T00:22:25;10.00;99.90
32097;DHT22;18610;49.916;8.284;2024-02-04T00:24:53;9.90;99.90
32097;DHT22;18610;49.916;8.284;2024-02-04T00:27:19;9.90;99.90
32097;DHT22;18610;49.916;8.284;2024-02-04T00:29:46;9.90;99.90
32097;DHT22;18610;49.916;8.284;2024-02-04T00:32:13;9.80;99.90
32097;DHT22;18610;49.916;8.284;2024-02-04T00:34:39;9.80;99.90
32097;DHT22;18610;49.916;8.284;2024-02-04T00:37:06;9.80;99.90
32097;DHT22;18610;49.916;8.284;2024-02-04T00:39:33;9.80;99.90
32097;DHT22;18610;49.916;8.284;2024-02-04T00:42:01;9.80;99.90
32097;DHT22;18610;49.916;8.284;2024-02-04T00:44:27;9.80;99.90
32097;DHT22;18610;49.916;8.284;2024-02-04T00:46:54;9.80;99.90
32097;DHT22;18610;49.916;8.284;2024-02-04T00:49:21;9.90;99.90
32097;DHT22;18610;49.916;8.284;2024-02-04T00:51:46;9.90;99.90
32097;DHT22;18610;49.916;8.284;2024-02-04T00:54:13;9.90;99.90
32097;DHT22;18610;49.916;8.284;2024-02-04T00:56:40;9.80;99.90
32097;DHT22;18610;49.916;8.284;2024-02-04T00:59:08;9.80;99.90
32097;DHT22;18610;49.916;8.284;2024-02-04T01:01:34;9.80;99.90
32097;DHT22;18610;49.916;8.284;2024-02-04T01:04:01;9.80;99.90
32097;DHT22;18610;49.916;8.284;2024-02-04T01:06:28;9.80;99.90
32097;DHT22;18610;49.916;8.284;2024-02-04T01:08:55;9.80;99.90
32097;DHT22;18610;49.916;8.284;2024-02-04T01:11:22;9.70;99.90
32097;DHT22;18610;49.916;8.284;2024-02-04T01:13:49;9.70;99.90
32097;DHT22;18610;49.916;8.284;2024-02-04T01:16:17;9.70;99.90
32097;DHT22;18610;49.916;8.284;2024-02-04T01:18:43;9.70;99.90
32097;DHT22;18610;49.916;8.284;2024-02-04T01:21:10;9.80;99.90
32097;DHT22;18610;49.916;8.284;2024-02-04T01:23:37;9.80;99.90
32097;DHT22;18610;49.916;8.284;2024-02-04T01:26:04;9.80;99.90
32097;DHT22;18610;49.916;8.284;2024-02-04T01:28:31;9.80;99.90
32097;DHT22;18610;49.916;8.284;2024-02-04T01:30:57;9.70;99.90
32097;DHT22;18610;49.916;8.284;2024-02-04T01:33:25;9.70;99.90
32097;DHT22;18610;49.916;8.284;2024-02-04T01:35:52;9.80;99.90
32097;DHT22;18610;49.916;8.284;2024-02-04T01:38:19;9.80;99.90
32097;DHT22;18610;49.916;8.284;2024-02-04T01:40:45;9.80;99.90
32097;DHT22;18610;49.916;8.284;2024-02-04T01:43:12;9.80;99.90
32097;DHT22;18610;49.916;8.284;2024-02-04T01:45:39;9.80;99.90
32097;DHT22;18610;49.916;8.284;2024-02-04T01:48:06;9.80;99.90
32097;DHT22;18610;49.916;8.284;2024-02-04T01:50:34;9.70;99.90
32097;DHT22;18610;49.916;8.284;2024-02-04T01:53:01;9.80;99.90
32097;DHT22;18610;49.916;8.284;2024-02-04T01:55:28;9.80;99.90
32097;DHT22;18610;49.916;8.284;2024-02-04T01:57:54;9.70;99.90
32097;DHT22;18610;49.916;8.284;2024-02-04T02:00:21;9.80;99.90
32097;DHT22;18610;49.916;8.284;2024-02-04T02:02:48;9.80;99.90
32097;DHT22;18610;49.916;8.284;2024-02-04T02:05:16;9.70;99.90
32097;DHT22;18610;49.916;8.284;2024-02-04T02:07:44;9.70;99.90
32097;DHT22;18610;49.916;8.284;2024-02-04T02:10:13;9.70;99.90
32097;DHT22;18610;49.916;8.284;2024-02-04T02:12:46;9.70;99.90
32097;DHT22;18610;49.916;8.284;2024-02-04T02:15:15;9.70;99.90
32097;DHT22;18610;49.916;8.284;2024-02-04T02:17:48;9.60;99.90
32097;DHT22;18610;49.916;8.284;2024-02-04T02:20:21;9.70;99.90
32097;DHT22;18610;49.916;8.284;2024-02-04T02:22:55;9.60;99.90
32097;DHT22;18610;49.916;8.284;2024-02-04T02:25:28;9.60;99.90
32097;DHT22;18610;49.916;8.284;2024-02-04T02:27:55;9.60;99.90
32097;DHT22;18610;49.916;8.284;2024-02-04T02:30:21;9.60;99.90
32097;DHT22;18610;49.916;8.284;2024-02-04T02:32:49;9.60;99.90
32097;DHT22;18610;49.916;8.284;2024-02-04T02:35:16;9.50;99.90
32097;DHT22;18610;49.916;8.284;2024-02-04T02:37:46;9.50;99.90
32097;DHT22;18610;49.916;8.284;2024-02-04T02:40:20;9.60;99.90
32097;DHT22;18610;49.916;8.284;2024-02-04T02:42:50;9.50;99.90
32097;DHT22;18610;49.916;8.284;2024-02-04T02:45:20;9.50;99.90
32097;DHT22;18610;49.916;8.284;2024-02-04T02:47:47;9.50;99.90
32097;DHT22;18610;49.916;8.284;2024-02-04T02:50:14;9.50;99.90
32097;DHT22;18610;49.916;8.284;2024-02-04T02:52:41;9.50;99.90
32097;DHT22;18610;49.916;8.284;2024-02-04T02:55:11;9.50;99.90
32097;DHT22;18610;49.916;8.284;2024-02-04T02:57:38;9.50;99.90
32097;DHT22;18610;49.916;8.284;2024-02-04T03:00:07;9.60;99.90
32097;DHT22;18610;49.916;8.284;2024-02-04T03:02:34;9.60;99.90
32097;DHT22;18610;49.916;8.284;2024-02-04T03:05:01;9.50;99.90
32097;DHT22;18610;49.916;8.284;2024-02-04T03:07:28;9.50;99.90
32097;DHT22;18610;49.916;8.284;2024-02-04T03:09:55;9.40;99.90
32097;DHT22;18610;49.916;8.284;2024-02-04T03:12:21;9.50;99.90
32097;DHT22;18610;49.916;8.284;2024-02-04T03:14:48;9.50;99.90
32097;DHT22;18610;49.916;8.284;2024-02-04T03:17:16;9.50;99.90
32097;DHT22;18610;49.916;8.284;2024-02-04T03:19:47;9.50;99.90
32097;DHT22;18610;49.916;8.284;2024-02-04T03:22:14;9.40;99.90
32097;DHT22;18610;49.916;8.284;2024-02-04T03:24:41;9.50;99.90
32097;DHT22;18610;49.916;8.284;2024-02-04T03:27:07;9.50;99.90
32097;DHT22;18610;49.916;8.284;2024-02-04T03:29:34;9.50;99.90
32097;DHT22;18610;49.916;8.284;2024-02-04T03:32:02;9.50;99.90
32097;DHT22;18610;49.916;8.284;2024-02-04T03:34:30;9.50;99.90
32097;DHT22;18610;49.916;8.284;2024-02-04T03:36:56;9.50;99.90
32097;DHT22;18610;49.916;8.284;2024-02-04T03:39:23;9.50;99.90
32097;DHT22;18610;49.916;8.284;2024-02-04T03:41:50;9.50;99.90
32097;DHT22;18610;49.916;8.284;2024-02-04T03:44:16;9.50;99.90
32097;DHT22;18610;49.916;8.284;2024-02-04T03:46:43;9.50;99.90
32097;DHT22;18610;49.916;8.284;2024-02-04T03:49:10;9.50;99.90
32097;DHT22;18610;49.916;8.284;2024-02-04T03:51:38;9.60;99.90
32097;DHT22;18610;49.916;8.284;2024-02-04T03:54:05;9.60;99.90
32097;DHT22;18610;49.916;8.284;2024-02-04T03:56:31;9.60;99.90
32097;DHT22;18610;49.916;8.284;2024-02-04T03:58:58;9.60;99.90
32097;DHT22;18610;49.916;8.284;2024-02-04T04:01:25;9.60;99.90
32097;DHT22;18610;49.916;8.284;2024-02-04T04:03:51;9.60;99.90
32097;DHT22;18610;49.916;8.284;2024-02-04T04:06:18;9.60;99.90
32097;DHT22;18610;49.916;8.284;2024-02-04T04:08:46;9.70;99.90
32097;DHT22;18610;49.916;8.284;2024-02-04T04:11:13;9.70;99.90
32097;DHT22;18610;49.916;8.284;2024-02-04T04:13:39;9.70;99.90
32097;DHT22;18610;49.916;8.284;2024-02-04T04:16:06;9.60;99.90
32097;DHT22;18610;49.916;8.284;2024-02-04T04:18:33;9.60;99.90
32097;DHT22;18610;49.916;8.284;2024-02-04T04:21:00;9.60;99.90
32097;DHT22;18610;49.916;8.284;2024-02-04T04:23:27;9.60;99.90
32097;DHT22;18610;49.916;8.284;2024-02-04T04:25:55;9.60;99.90
32097;DHT22;18610;49.916;8.284;2024-02-04T04:28:22;9.60;99.90
32097;DHT22;18610;49.916;8.284;2024-02-04T04:30:48;9.60;99.90
32097;DHT22;18610;49.916;8.284;2024-02-04T04:33:15;9.60;99.90
32097;DHT22;18610;49.916;8.284;2024-02-04T04:35:41;9.60;99.90
32097;DHT22;18610;49.916;8.284;2024-02-04T04:38:08;9.60;99.90
32097;DHT22;18610;49.916;8.284;2024-02-04T04:40:35;9.70;99.90
32097;DHT22;18610;49.916;8.284;2024-02-04T04:43:03;9.60;99.90
32097;DHT22;18610;49.916;8.284;2024-02-04T04:45:30;9.60;99.90
32097;DHT22;18610;49.916;8.284;2024-02-04T04:47:56;9.60;99.90
32097;DHT22;18610;49.916;8.284;2024-02-04T04:50:23;9.60;99.90
32097;DHT22;18610;49.916;8.284;2024-02-04T04:52:50;9.60;99.90
32097;DHT22;18610;49.916;8.284;2024-02-04T04:55:18;9.60;99.90
32097;DHT22;18610;49.916;8.284;2024-02-04T04:57:45;9.70;99.90
32097;DHT22;18610;49.916;8.284;2024-02-04T05:00:15;9.70;99.90
32097;DHT22;18610;49.916;8.284;2024-02-04T05:02:42;9.70;99.90
32097;DHT22;18610;49.916;8.284;2024-02-04T05:05:10;9.70;99.90
32097;DHT22;18610;49.916;8.284;2024-02-04T05:07:37;9.70;99.90
32097;DHT22;18610;49.916;8.284;2024-02-04T05:10:04;9.70;99.90
32097;DHT22;18610;49.916;8.284;2024-02-04T05:12:32;9.70;99.90
32097;DHT22;18610;49.916;8.284;2024-02-04T05:14:59;9.70;99.90
32097;DHT22;18610;49.916;8.284;2024-02-04T05:17:27;9.70;99.90
32097;DHT22;18610;49.916;8.284;2024-02-04T05:19:54;9.70;99.90
32097;DHT22;18610;49.916;8.284;2024-02-04T05:22:20;9.70;99.90
32097;DHT22;18610;49.916;8.284;2024-02-04T05:24:47;9.60;99.90
32097;DHT22;18610;49.916;8.284;2024-02-04T05:27:14;9.70;99.90
32097;DHT22;18610;49.916;8.284;2024-02-04T05:29:40;9.70;99.90
32097;DHT22;18610;49.916;8.284;2024-02-04T05:32:07;9.70;99.90
32097;DHT22;18610;49.916;8.284;2024-02-04T05:34:37;9.60;99.90
32097;DHT22;18610;49.916;8.284;2024-02-04T05:37:03;9.60;99.90
32097;DHT22;18610;49.916;8.284;2024-02-04T05:39:30;9.60;99.90
32097;DHT22;18610;49.916;8.284;2024-02-04T05:41:57;9.70;99.90
32097;DHT22;18610;49.916;8.284;2024-02-04T05:44:23;9.70;99.90
32097;DHT22;18610;49.916;8.284;2024-02-04T05:46:50;9.60;99.90
32097;DHT22;18610;49.916;8.284;2024-02-04T05:49:16;9.60;99.90
32097;DHT22;18610;49.916;8.284;2024-02-04T05:51:44;9.60;99.90
32097;DHT22;18610;49.916;8.284;2024-02-04T05:54:12;9.70;99.90
32097;DHT22;18610;49.916;8.284;2024-02-04T05:56:39;9.60;99.90
32097;DHT22;18610;49.916;8.284;2024-02-04T05:59:06;9.60;99.90
32097;DHT22;18610;49.916;8.284;2024-02-04T06:01:32;9.60;99.90
32097;DHT22;18610;49.916;8.284;2024-02-04T06:03:59;9.60;99.90
32097;DHT22;18610;49.916;8.284;2024-02-04T06:06:26;9.60;99.90
32097;DHT22;18610;49.916;8.284;2024-02-04T06:08:54;9.60;99.90
32097;DHT22;18610;49.916;8.284;2024-02-04T06:11:20;9.60;99.90
32097;DHT22;18610;49.916;8.284;2024-02-04T06:13:47;9.60;99.90
32097;DHT22;18610;49.916;8.284;2024-02-04T06:16:14;9.60;99.90
32097;DHT22;18610;49.916;8.284;2024-02-04T06:18:41;9.60;99.90
32097;DHT22;18610;49.916;8.284;2024-02-04T06:21:07;9.60;99.90
32097;DHT22;18610;49.916;8.284;2024-02-04T06:23:34;9.60;99.90
32097;DHT22;18610;49.916;8.284;2024-02-04T06:26:05;9.60;99.90
32097;DHT22;18610;49.916;8.284;2024-02-04T06:28:31;9.50;99.90
32097;DHT22;18610;49.916;8.284;2024-02-04T06:30:58;9.60;99.90
32097;DHT22;18610;49.916;8.284;2024-02-04T06:33:25;9.50;99.90
32097;DHT22;18610;49.916;8.284;2024-02-04T06:35:51;9.60;99.90
32097;DHT22;18610;49.916;8.284;2024-02-04T06:38:18;9.60;99.90
32097;DHT22;18610;49.916;8.284;2024-02-04T06:40:45;9.60;99.90
32097;DHT22;18610;49.916;8.284;2024-02-04T06:43:13;9.60;99.90
32097;DHT22;18610;49.916;8.284;2024-02-04T06:45:40;9.60;99.90
32097;DHT22;18610;49.916;8.284;2024-02-04T06:48:07;9.60;99.90
32097;DHT22;18610;49.916;8.284;2024-02-04T06:50:35;9.60;99.90
32097;DHT22;18610;49.916;8.284;2024-02-04T06:53:02;9.60;99.90
32097;DHT22;18610;49.916;8.284;2024-02-04T06:55:29;9.60;99.90
32097;DHT22;18610;49.916;8.284;2024-02-04T06:57:55;9.60;99.90
32097;DHT22;18610;49.916;8.284;2024-02-04T07:00:23;9.60;99.90
32097;DHT22;18610;49.916;8.284;2024-02-04T07:02:50;9.60;99.90
32097;DHT22;18610;49.916;8.284;2024-02-04T07:05:17;9.70;99.90
32097;DHT22;18610;49.916;8.284;2024-02-04T07:07:44;9.70;99.90
32097;DHT22;18610;49.916;8.284;2024-02-04T07:10:10;9.70;99.90
32097;DHT22;18610;49.916;8.284;2024-02-04T07:12:37;9.70;99.90
32097;DHT22;18610;49.916;8.284;2024-02-04T07:15:04;9.70;99.90
32097;DHT22;18610;49.916;8.284;2024-02-04T07:17:32;9.70;99.90
32097;DHT22;18610;49.916;8.284;2024-02-04T07:19:59;9.70;99.90
32097;DHT22;18610;49.916;8.284;2024-02-04T07:22:25;9.70;99.90
32097;DHT22;18610;49.916;8.284;2024-02-04T07:24:52;9.70;99.90
32097;DHT22;18610;49.916;8.284;2024-02-04T07:27:19;9.70;99.90
32097;DHT22;18610;49.916;8.284;2024-02-04T07:29:45;9.70;99.90
32097;DHT22;18610;49.916;8.284;2024-02-04T07:32:13;9.70;99.90
32097;DHT22;18610;49.916;8.284;2024-02-04T07:34:41;9.70;99.90
32097;DHT22;18610;49.916;8.284;2024-02-04T07:37:08;9.70;99.90
32097;DHT22;18610;49.916;8.284;2024-02-04T07:39:34;9.70;99.90
32097;DHT22;18610;49.916;8.284;2024-02-04T07:42:01;9.70;99.90
32097;DHT22;18610;49.916;8.284;2024-02-04T07:44:28;9.70;99.90
32097;DHT22;18610;49.916;8.284;2024-02-04T07:46:55;9.70;99.90
32097;DHT22;18610;49.916;8.284;2024-02-04T07:49:21;9.70;99.90
32097;DHT22;18610;49.916;8.284;2024-02-04T07:51:49;9.80;99.90
32097;DHT22;18610;49.916;8.284;2024-02-04T07:54:16;9.70;99.90
32097;DHT22;18610;49.916;8.284;2024-02-04T07:56:43;9.70;99.90
32097;DHT22;18610;49.916;8.284;2024-02-04T07:59:09;9.80;99.90
32097;DHT22;18610;49.916;8.284;2024-02-04T08:01:36;9.70;99.90
32097;DHT22;18610;49.916;8.284;2024-02-04T08:04:03;9.70;99.90
32097;DHT22;18610;49.916;8.284;2024-02-04T08:06:31;9.80;99.90
32097;DHT22;18610;49.916;8.284;2024-02-04T08:09:01;9.70;99.90
32097;DHT22;18610;49.916;8.284;2024-02-04T08:11:27;9.70;99.90
32097;DHT22;18610;49.916;8.284;2024-02-04T08:13:54;9.70;99.90
32097;DHT22;18610;49.916;8.284;2024-02-04T08:16:21;9.80;99.90
32097;DHT22;18610;49.916;8.284;2024-02-04T08:18:47;9.80;99.90
32097;DHT22;18610;49.916;8.284;2024-02-04T08:21:14;9.80;99.90
32097;DHT22;18610;49.916;8.284;2024-02-04T08:23:41;9.80;99.90
32097;DHT22;18610;49.916;8.284;2024-02-04T08:26:09;9.80;99.90
32097;DHT22;18610;49.916;8.284;2024-02-04T08:28:35;9.70;99.90
32097;DHT22;18610;49.916;8.284;2024-02-04T08:31:02;9.80;99.90
32097;DHT22;18610;49.916;8.284;2024-02-04T08:33:29;9.80;99.90
32097;DHT22;18610;49.916;8.284;2024-02-04T08:35:55;9.80;99.90
32097;DHT22;18610;49.916;8.284;2024-02-04T08:38:22;9.70;99.90
32097;DHT22;18610;49.916;8.284;2024-02-04T08:40:49;9.70;99.90
32097;DHT22;18610;49.916;8.284;2024-02-04T08:43:17;9.70;99.90
32097;DHT22;18610;49.916;8.284;2024-02-04T08:45:43;9.70;99.90
32097;DHT22;18610;49.916;8.284;2024-02-04T08:48:10;9.70;99.90
32097;DHT22;18610;49.916;8.284;2024-02-04T08:50:37;9.70;99.90
32097;DHT22;18610;49.916;8.284;2024-02-04T08:53:04;9.80;99.90
32097;DHT22;18610;49.916;8.284;2024-02-04T08:55:30;9.90;99.90
32097;DHT22;18610;49.916;8.284;2024-02-04T08:57:57;9.90;99.90
32097;DHT22;18610;49.916;8.284;2024-02-04T09:00:25;9.90;99.90
32097;DHT22;18610;49.916;8.284;2024-02-04T09:02:51;10.10;99.90
32097;DHT22;18610;49.916;8.284;2024-02-04T09:05:18;10.10;99.90
32097;DHT22;18610;49.916;8.284;2024-02-04T09:07:45;10.20;99.90
32097;DHT22;18610;49.916;8.284;2024-02-04T09:10:12;10.30;99.90
32097;DHT22;18610;49.916;8.284;2024-02-04T09:12:39;10.40;99.90
32097;DHT22;18610;49.916;8.284;2024-02-04T09:15:06;10.50;99.90
32097;DHT22;18610;49.916;8.284;2024-02-04T09:17:35;10.60;99.90
32097;DHT22;18610;49.916;8.284;2024-02-04T09:20:01;10.60;99.90
32097;DHT22;18610;49.916;8.284;2024-02-04T09:22:29;10.60;99.90
32097;DHT22;18610;49.916;8.284;2024-02-04T09:24:56;10.70;99.90
32097;DHT22;18610;49.916;8.284;2024-02-04T09:27:22;10.60;99.90
32097;DHT22;18610;49.916;8.284;2024-02-04T09:29:49;10.70;99.90
32097;DHT22;18610;49.916;8.284;2024-02-04T09:32:16;10.70;99.90
32097;DHT22;18610;49.916;8.284;2024-02-04T09:34:44;10.90;99.90
32097;DHT22;18610;49.916;8.284;2024-02-04T09:37:10;11.00;99.90
32097;DHT22;18610;49.916;8.284;2024-02-04T09:39:38;11.10;99.90
32097;DHT22;18610;49.916;8.284;2024-02-04T09:42:05;11.20;99.90
32097;DHT22;18610;49.916;8.284;2024-02-04T09:44:32;11.10;99.90
32097;DHT22;18610;49.916;8.284;2024-02-04T09:47:01;11.10;99.90
32097;DHT22;18610;49.916;8.284;2024-02-04T09:49:29;11.10;99.90
32097;DHT22;18610;49.916;8.284;2024-02-04T09:51:59;11.00;99.90
32097;DHT22;18610;49.916;8.284;2024-02-04T09:54:32;10.90;99.90
32097;DHT22;18610;49.916;8.284;2024-02-04T09:57:00;10.90;99.90
32097;DHT22;18610;49.916;8.284;2024-02-04T09:59:27;10.80;99.90
32097;DHT22;18610;49.916;8.284;2024-02-04T10:01:55;10.80;99.90
32097;DHT22;18610;49.916;8.284;2024-02-04T10:04:22;10.70;99.90
32097;DHT22;18610;49.916;8.284;2024-02-04T10:06:48;10.60;99.90
32097;DHT22;18610;49.916;8.284;2024-02-04T10:09:16;10.60;99.90
32097;DHT22;18610;49.916;8.284;2024-02-04T10:11:43;10.50;99.90
32097;DHT22;18610;49.916;8.284;2024-02-04T10:14:10;10.40;99.90
32097;DHT22;18610;49.916;8.284;2024-02-04T10:16:37;10.40;99.90
32097;DHT22;18610;49.916;8.284;2024-02-04T10:19:04;10.40;99.90
32097;DHT22;18610;49.916;8.284;2024-02-04T10:21:30;10.40;99.90
32097;DHT22;18610;49.916;8.284;2024-02-04T10:23:57;10.40;99.90
32097;DHT22;18610;49.916;8.284;2024-02-04T10:26:28;10.40;99.90
32097;DHT22;18610;49.916;8.284;2024-02-04T10:28:57;10.40;99.90
32097;DHT22;18610;49.916;8.284;2024-02-04T10:31:25;10.40;99.90
32097;DHT22;18610;49.916;8.284;2024-02-04T10:33:53;10.40;99.90
32097;DHT22;18610;49.916;8.284;2024-02-04T10:36:20;10.40;99.90
32097;DHT22;18610;49.916;8.284;2024-02-04T10:38:47;10.40;99.90
32097;DHT22;18610;49.916;8.284;2024-02-04T10:41:15;10.40;99.90
32097;DHT22;18610;49.916;8.284;2024-02-04T10:43:44;10.50;99.90
32097;DHT22;18610;49.916;8.284;2024-02-04T10:46:13;10.50;99.90
32097;DHT22;18610;49.916;8.284;2024-02-04T10:48:43;10.50;99.90
32097;DHT22;18610;49.916;8.284;2024-02-04T10:51:13;10.60;99.90
32097;DHT22;18610;49.916;8.284;2024-02-04T10:53:41;10.60;99.90
32097;DHT22;18610;49.916;8.284;2024-02-04T10:56:13;10.60;99.90
32097;DHT22;18610;49.916;8.284;2024-02-04T10:58:41;10.60;99.90
32097;DHT22;18610;49.916;8.284;2024-02-04T11:01:11;10.60;99.90
32097;DHT22;18610;49.916;8.284;2024-02-04T11:03:39;10.50;99.90
32097;DHT22;18610;49.916;8.284;2024-02-04T11:06:07;10.60;99.90
32097;DHT22;18610;49.916;8.284;2024-02-04T11:08:34;10.60;99.90
32097;DHT22;18610;49.916;8.284;2024-02-04T11:11:01;10.50;99.90
32097;DHT22;18610;49.916;8.284;2024-02-04T11:13:28;10.50;99.90
32097;DHT22;18610;49.916;8.284;2024-02-04T11:15:56;10.50;99.90
32097;DHT22;18610;49.916;8.284;2024-02-04T11:18:49;10.40;99.90
32097;DHT22;18610;49.916;8.284;2024-02-04T11:21:42;10.50;99.90
32097;DHT22;18610;49.916;8.284;2024-02-04T11:24:22;10.50;99.90
32097;DHT22;18610;49.916;8.284;2024-02-04T11:26:54;10.50;99.90
32097;DHT22;18610;49.916;8.284;2024-02-04T11:29:21;10.60;99.90
32097;DHT22;18610;49.916;8.284;2024-02-04T11:31:48;10.70;99.90
32097;DHT22;18610;49.916;8.284;2024-02-04T11:34:16;10.70;99.90
32097;DHT22;18610;49.916;8.284;2024-02-04T11:36:43;10.70;99.90
32097;DHT22;18610;49.916;8.284;2024-02-04T11:39:13;10.70;99.90
32097;DHT22;18610;49.916;8.284;2024-02-04T11:41:45;10.70;99.90
32097;DHT22;18610;49.916;8.284;2024-02-04T11:44:19;10.70;99.90
32097;DHT22;18610;49.916;8.284;2024-02-04T11:46:46;10.80;99.90
32097;DHT22;18610;49.916;8.284;2024-02-04T11:49:16;10.80;99.90
32097;DHT22;18610;49.916;8.284;2024-02-04T11:51:45;10.80;99.90
32097;DHT22;18610;49.916;8.284;2024-02-04T11:54:14;10.80;99.90
32097;DHT22;18610;49.916;8.284;2024-02-04T11:56:41;10.80;99.90
32097;DHT22;18610;49.916;8.284;2024-02-04T11:59:08;10.90;99.90
32097;DHT22;18610;49.916;8.284;2024-02-04T12:01:35;11.00;99.90
32097;DHT22;18610;49.916;8.284;2024-02-04T12:04:09;11.00;99.90
32097;DHT22;18610;49.916;8.284;2024-02-04T12:06:37;11.00;99.90
32097;DHT22;18610;49.916;8.284;2024-02-04T12:09:04;11.00;99.90
32097;DHT22;18610;49.916;8.284;2024-02-04T12:11:32;11.00;99.90
32097;DHT22;18610;49.916;8.284;2024-02-04T12:14:00;10.90;99.90
32097;DHT22;18610;49.916;8.284;2024-02-04T12:16:27;11.00;99.90
32097;DHT22;18610;49.916;8.284;2024-02-04T12:18:54;11.20;99.90
32097;DHT22;18610;49.916;8.284;2024-02-04T12:21:21;11.30;99.90
32097;DHT22;18610;49.916;8.284;2024-02-04T12:23:49;11.30;99.90
32097;DHT22;18610;49.916;8.284;2024-02-04T12:26:16;11.30;99.90
32097;DHT22;18610;49.916;8.284;2024-02-04T12:28:43;11.30;99.90
32097;DHT22;18610;49.916;8.284;2024-02-04T12:31:16;11.20;99.90
32097;DHT22;18610;49.916;8.284;2024-02-04T12:33:51;11.20;99.90
32097;DHT22;18610;49.916;8.284;2024-02-04T12:36:18;11.10;99.90
32097;DHT22;18610;49.916;8.284;2024-02-04T12:38:52;11.10;99.90
32097;DHT22;18610;49.916;8.284;2024-02-04T12:41:19;11.10;99.90
32097;DHT22;18610;49.916;8.284;2024-02-04T12:43:49;11.00;99.90
32097;DHT22;18610;49.916;8.284;2024-02-04T12:46:16;11.00;99.90
32097;DHT22;18610;49.916;8.284;2024-02-04T12:48:43;11.00;99.90
32097;DHT22;18610;49.916;8.284;2024-02-04T12:51:10;11.00;99.90
32097;DHT22;18610;49.916;8.284;2024-02-04T12:53:37;11.00;99.90
32097;DHT22;18610;49.916;8.284;2024-02-04T12:56:05;10.90;99.90
32097;DHT22;18610;49.916;8.284;2024-02-04T12:58:42;10.90;99.90
32097;DHT22;18610;49.916;8.284;2024-02-04T13:01:08;10.90;99.90
32097;DHT22;18610;49.916;8.284;2024-02-04T13:03:35;10.90;99.90
32097;DHT22;18610;49.916;8.284;2024-02-04T13:06:02;10.90;99.90
32097;DHT22;18610;49.916;8.284;2024-02-04T13:08:29;10.90;99.90
32097;DHT22;18610;49.916;8.284;2024-02-04T13:10:57;10.90;99.90
32097;DHT22;18610;49.916;8.284;2024-02-04T13:13:25;11.00;99.90
32097;DHT22;18610;49.916;8.284;2024-02-04T13:15:52;11.00;99.90
32097;DHT22;18610;49.916;8.284;2024-02-04T13:18:19;11.00;99.90
32097;DHT22;18610;49.916;8.284;2024-02-04T13:20:46;11.00;99.90
32097;DHT22;18610;49.916;8.284;2024-02-04T13:23:13;11.00;99.90
32097;DHT22;18610;49.916;8.284;2024-02-04T13:25:40;11.00;99.90
32097;DHT22;18610;49.916;8.284;2024-02-04T13:28:07;11.10;99.90
32097;DHT22;18610;49.916;8.284;2024-02-04T13:30:35;11.10;99.90
32097;DHT22;18610;49.916;8.284;2024-02-04T13:33:02;11.10;99.90
32097;DHT22;18610;49.916;8.284;2024-02-04T13:35:29;11.10;99.90
32097;DHT22;18610;49.916;8.284;2024-02-04T13:37:56;11.10;99.90
32097;DHT22;18610;49.916;8.284;2024-02-04T13:40:23;11.10;99.90
32097;DHT22;18610;49.916;8.284;2024-02-04T13:42:50;11.10;99.90
32097;DHT22;18610;49.916;8.284;2024-02-04T13:45:16;11.20;99.90
32097;DHT22;18610;49.916;8.284;2024-02-04T13:47:44;11.10;99.90
32097;DHT22;18610;49.916;8.284;2024-02-04T13:50:11;11.10;99.90
32097;DHT22;18610;49.916;8.284;2024-02-04T13:52:38;11.10;99.90
32097;DHT22;18610;49.916;8.284;2024-02-04T13:55:06;11.20;99.90
32097;DHT22;18610;49.916;8.284;2024-02-04T13:57:33;11.10;99.90
32097;DHT22;18610;49.916;8.284;2024-02-04T14:00:00;11.20;99.90
32097;DHT22;18610;49.916;8.284;2024-02-04T14:02:28;11.20;99.90
32097;DHT22;18610;49.916;8.284;2024-02-04T14:04:57;11.20;99.90
32097;DHT22;18610;49.916;8.284;2024-02-04T14:07:25;11.20;99.90
32097;DHT22;18610;49.916;8.284;2024-02-04T14:09:52;11.20;99.90
32097;DHT22;18610;49.916;8.284;2024-02-04T14:12:18;11.30;99.90
32097;DHT22;18610;49.916;8.284;2024-02-04T14:14:45;11.20;99.90
32097;DHT22;18610;49.916;8.284;2024-02-04T14:17:12;11.20;99.90
32097;DHT22;18610;49.916;8.284;2024-02-04T14:19:39;11.30;99.90
32097;DHT22;18610;49.916;8.284;2024-02-04T14:22:07;11.30;99.90
32097;DHT22;18610;49.916;8.284;2024-02-04T14:24:33;11.30;99.90
32097;DHT22;18610;49.916;8.284;2024-02-04T14:27:01;11.40;99.90
32097;DHT22;18610;49.916;8.284;2024-02-04T14:29:28;11.40;99.90
32097;DHT22;18610;49.916;8.284;2024-02-04T14:31:54;11.40;99.90
32097;DHT22;18610;49.916;8.284;2024-02-04T14:34:23;11.40;99.90
32097;DHT22;18610;49.916;8.284;2024-02-04T14:36:50;11.40;99.90
32097;DHT22;18610;49.916;8.284;2024-02-04T14:39:18;11.40;99.90
32097;DHT22;18610;49.916;8.284;2024-02-04T14:41:45;11.40;99.90
32097;DHT22;18610;49.916;8.284;2024-02-04T14:44:12;11.40;99.90
32097;DHT22;18610;49.916;8.284;2024-02-04T14:46:38;11.40;99.90
32097;DHT22;18610;49.916;8.284;2024-02-04T14:49:05;11.50;99.90
32097;DHT22;18610;49.916;8.284;2024-02-04T14:51:32;11.40;99.90
32097;DHT22;18610;49.916;8.284;2024-02-04T14:53:59;11.40;99.90
32097;DHT22;18610;49.916;8.284;2024-02-04T14:56:27;11.40;99.90
32097;DHT22;18610;49.916;8.284;2024-02-04T14:58:53;11.40;99.90
32097;DHT22;18610;49.916;8.284;2024-02-04T15:01:20;11.40;99.90
32097;DHT22;18610;49.916;8.284;2024-02-04T15:03:47;11.40;99.90
32097;DHT22;18610;49.916;8.284;2024-02-04T15:06:14;11.40;99.90
32097;DHT22;18610;49.916;8.284;2024-02-04T15:08:41;11.40;99.90
32097;DHT22;18610;49.916;8.284;2024-02-04T15:11:07;11.40;99.90
32097;DHT22;18610;49.916;8.284;2024-02-04T15:13:36;11.40;99.90
32097;DHT22;18610;49.916;8.284;2024-02-04T15:16:03;11.30;99.90
32097;DHT22;18610;49.916;8.284;2024-02-04T15:18:31;11.30;99.90
32097;DHT22;18610;49.916;8.284;2024-02-04T15:20:58;11.30;99.90
32097;DHT22;18610;49.916;8.284;2024-02-04T15:23:25;11.30;99.90
32097;DHT22;18610;49.916;8.284;2024-02-04T15:25:52;11.30;99.90
32097;DHT22;18610;49.916;8.284;2024-02-04T15:28:20;11.30;99.90
32097;DHT22;18610;49.916;8.284;2024-02-04T15:30:49;11.30;99.90
32097;DHT22;18610;49.916;8.284;2024-02-04T15:33:16;11.30;99.90
32097;DHT22;18610;49.916;8.284;2024-02-04T15:35:43;11.30;99.90
32097;DHT22;18610;49.916;8.284;2024-02-04T15:38:10;11.30;99.90
32097;DHT22;18610;49.916;8.284;2024-02-04T15:40:37;11.30;99.90